createdAt,value
2017-02-26T00:00:55.616Z,0
2017-02-26T00:02:05.921Z,0
2017-02-26T00:03:16.659Z,0
2017-02-26T00:04:26.961Z,0
2017-02-26T00:05:37.680Z,0
2017-02-26T00:06:47.978Z,0
2017-02-26T00:07:58.691Z,0
2017-02-26T00:09:09.400Z,0
2017-02-26T00:10:20.123Z,0
2017-02-26T00:11:30.452Z,0
2017-02-26T00:12:41.154Z,0
2017-02-26T00:13:51.909Z,0
2017-02-26T00:15:02.624Z,0
2017-02-26T00:16:13.312Z,0
2017-02-26T00:17:24.016Z,0
2017-02-26T00:18:34.715Z,0
2017-02-26T00:19:45.410Z,0
2017-02-26T00:20:56.107Z,0
2017-02-26T00:22:06.431Z,0
2017-02-26T00:23:17.127Z,0
2017-02-26T00:24:27.831Z,0
2017-02-26T00:25:38.128Z,0
2017-02-26T00:26:48.416Z,0
2017-02-26T00:27:59.117Z,0
2017-02-26T00:29:09.823Z,0
2017-02-26T00:30:20.535Z,0
2017-02-26T00:31:31.253Z,0
2017-02-26T00:32:41.966Z,0
2017-02-26T00:33:52.664Z,0
2017-02-26T00:35:03.383Z,0
2017-02-26T00:36:13.683Z,0
2017-02-26T00:37:24.382Z,0
2017-02-26T00:38:35.086Z,0
2017-02-26T00:39:45.788Z,0
2017-02-26T00:40:56.502Z,0
2017-02-26T00:42:07.210Z,0
2017-02-26T00:43:17.906Z,0
2017-02-26T00:44:28.603Z,0
2017-02-26T00:45:39.290Z,0
2017-02-26T00:46:49.603Z,0
2017-02-26T00:48:00.294Z,0
2017-02-26T00:49:10.982Z,0
2017-02-26T00:50:21.285Z,0
2017-02-26T00:51:31.987Z,0
2017-02-26T00:52:42.694Z,0
2017-02-26T00:53:53.392Z,0
2017-02-26T00:55:04.102Z,0
2017-02-26T00:56:14.007Z,0
2017-02-26T00:57:24.715Z,0
2017-02-26T00:58:35.411Z,0
2017-02-26T00:59:45.705Z,0
2017-02-26T01:00:56.405Z,0
2017-02-26T01:02:07.105Z,0
2017-02-26T01:03:17.831Z,0
2017-02-26T01:04:28.132Z,0
2017-02-26T01:05:38.038Z,0
2017-02-26T01:06:48.745Z,0
2017-02-26T01:07:59.441Z,0
2017-02-26T01:09:10.150Z,0
2017-02-26T01:10:20.455Z,0
2017-02-26T01:11:31.158Z,0
2017-02-26T01:12:41.850Z,0
2017-02-26T01:13:52.538Z,0
2017-02-26T01:15:03.270Z,0
2017-02-26T01:16:13.557Z,0
2017-02-26T01:17:24.266Z,0
2017-02-26T01:18:34.983Z,0
2017-02-26T01:19:45.680Z,0
2017-02-26T01:20:56.371Z,0
2017-02-26T01:22:07.071Z,0
2017-02-26T01:23:17.764Z,0
2017-02-26T01:24:30.462Z,0
2017-02-26T01:25:40.411Z,0
2017-02-26T01:26:51.101Z,0
2017-02-26T01:28:01.805Z,0
2017-02-26T01:29:12.525Z,0
2017-02-26T01:30:22.817Z,0
2017-02-26T01:31:33.499Z,0
2017-02-26T01:32:43.785Z,0
2017-02-26T01:33:54.489Z,0
2017-02-26T01:35:05.199Z,0
2017-02-26T01:36:15.897Z,0
2017-02-26T01:37:26.588Z,0
2017-02-26T01:38:36.895Z,0
2017-02-26T01:39:47.212Z,0
2017-02-26T01:40:57.924Z,0
2017-02-26T01:42:08.226Z,0
2017-02-26T01:43:18.929Z,0
2017-02-26T01:44:29.619Z,0
2017-02-26T01:45:40.336Z,0
2017-02-26T01:46:51.027Z,0
2017-02-26T01:48:01.347Z,0
2017-02-26T01:49:12.033Z,0
2017-02-26T01:50:22.724Z,0
2017-02-26T01:51:33.026Z,0
2017-02-26T01:52:43.738Z,0
2017-02-26T01:53:54.432Z,0
2017-02-26T01:55:05.122Z,0
2017-02-26T01:56:15.811Z,0
2017-02-26T01:57:26.504Z,0
2017-02-26T01:58:37.191Z,0
2017-02-26T01:59:47.884Z,0
2017-02-26T02:00:58.588Z,0
2017-02-26T02:02:09.277Z,0
2017-02-26T02:03:19.971Z,0
2017-02-26T02:04:30.260Z,0
2017-02-26T02:05:40.982Z,0
2017-02-26T02:06:51.675Z,0
2017-02-26T02:08:02.381Z,0
2017-02-26T02:09:13.084Z,0
2017-02-26T02:10:23.783Z,0
2017-02-26T02:11:33.701Z,0
2017-02-26T02:12:44.422Z,0
2017-02-26T02:13:55.129Z,0
2017-02-26T02:15:05.441Z,0
2017-02-26T02:16:16.164Z,0
2017-02-26T02:17:28.864Z,0
2017-02-26T02:18:38.772Z,0
2017-02-26T02:19:49.498Z,0
2017-02-26T02:21:00.185Z,0
2017-02-26T02:22:10.478Z,0
2017-02-26T02:23:23.279Z,0
2017-02-26T02:24:33.581Z,0
2017-02-26T02:25:44.279Z,0
2017-02-26T02:26:54.979Z,0
2017-02-26T02:28:05.693Z,0
2017-02-26T02:29:16.383Z,0
2017-02-26T02:30:26.677Z,0
2017-02-26T02:31:36.986Z,0
2017-02-26T02:32:47.672Z,0
2017-02-26T02:33:57.999Z,0
2017-02-26T02:35:08.683Z,0
2017-02-26T02:36:19.405Z,0
2017-02-26T02:37:29.699Z,0
2017-02-26T02:38:39.987Z,0
2017-02-26T02:39:50.686Z,0
2017-02-26T02:41:01.369Z,0
2017-02-26T02:42:12.090Z,0
2017-02-26T02:43:22.796Z,0
2017-02-26T02:44:33.494Z,0
2017-02-26T02:45:43.790Z,0
2017-02-26T02:46:54.478Z,0
2017-02-26T02:48:05.177Z,0
2017-02-26T02:49:15.871Z,0
2017-02-26T02:50:26.183Z,0
2017-02-26T02:51:36.110Z,0
2017-02-26T02:52:46.808Z,0
2017-02-26T02:53:57.494Z,0
2017-02-26T02:55:08.224Z,0
2017-02-26T02:56:18.514Z,0
2017-02-26T02:57:28.819Z,0
2017-02-26T02:58:39.515Z,0
2017-02-26T02:59:49.812Z,0
2017-02-26T03:01:00.525Z,0
2017-02-26T03:02:10.830Z,0
2017-02-26T03:03:21.129Z,0
2017-02-26T03:04:31.985Z,0
2017-02-26T03:05:42.680Z,0
2017-02-26T03:06:53.363Z,0
2017-02-26T03:08:04.069Z,0
2017-02-26T03:09:14.757Z,0
2017-02-26T03:10:25.818Z,0
2017-02-26T03:11:36.123Z,0
2017-02-26T03:12:46.420Z,0
2017-02-26T03:13:56.725Z,0
2017-02-26T03:15:07.424Z,0
2017-02-26T03:16:21.694Z,0
2017-02-26T03:17:32.016Z,0
2017-02-26T03:18:42.322Z,0
2017-02-26T03:19:53.043Z,0
2017-02-26T03:21:03.741Z,0
2017-02-26T03:22:14.036Z,0
2017-02-26T03:23:24.729Z,0
2017-02-26T03:24:34.684Z,0
2017-02-26T03:25:45.398Z,0
2017-02-26T03:26:56.077Z,0
2017-02-26T03:28:07.073Z,0
2017-02-26T03:29:17.776Z,0
2017-02-26T03:30:28.476Z,0
2017-02-26T03:31:38.775Z,0
2017-02-26T03:32:49.467Z,0
2017-02-26T03:34:00.162Z,0
2017-02-26T03:35:10.455Z,0
2017-02-26T03:36:21.151Z,0
2017-02-26T03:37:31.066Z,0
2017-02-26T03:38:41.749Z,0
2017-02-26T03:39:52.479Z,0
2017-02-26T03:41:03.183Z,0
2017-02-26T03:42:13.073Z,0
2017-02-26T03:43:23.775Z,0
2017-02-26T03:44:34.479Z,0
2017-02-26T03:45:45.172Z,0
2017-02-26T03:46:55.872Z,0
2017-02-26T03:48:06.569Z,0
2017-02-26T03:49:17.261Z,0
2017-02-26T03:50:27.149Z,0
2017-02-26T03:51:37.455Z,0
2017-02-26T03:52:47.760Z,0
2017-02-26T03:53:58.452Z,0
2017-02-26T03:55:09.136Z,0
2017-02-26T03:56:19.836Z,0
2017-02-26T03:57:30.537Z,0
2017-02-26T03:58:40.840Z,0
2017-02-26T03:59:50.774Z,0
2017-02-26T04:01:01.469Z,0
2017-02-26T04:02:12.227Z,0
2017-02-26T04:03:22.942Z,0
2017-02-26T04:04:33.644Z,0
2017-02-26T04:05:43.944Z,0
2017-02-26T04:06:54.656Z,0
2017-02-26T04:08:05.362Z,0
2017-02-26T04:09:16.096Z,0
2017-02-26T04:10:26.796Z,0
2017-02-26T04:11:37.495Z,0
2017-02-26T04:12:48.203Z,0
2017-02-26T04:13:58.927Z,0
2017-02-26T04:15:09.647Z,0
2017-02-26T04:16:20.335Z,0
2017-02-26T04:17:30.634Z,0
2017-02-26T04:18:41.319Z,0
2017-02-26T04:19:52.029Z,0
2017-02-26T04:21:02.713Z,0
2017-02-26T04:22:13.429Z,0
2017-02-26T04:23:24.115Z,0
2017-02-26T04:24:34.484Z,0
2017-02-26T04:25:44.803Z,0
2017-02-26T04:26:55.525Z,0
2017-02-26T04:28:06.224Z,0
2017-02-26T04:29:16.939Z,0
2017-02-26T04:30:27.624Z,0
2017-02-26T04:31:38.325Z,0
2017-02-26T04:32:49.039Z,0
2017-02-26T04:33:59.753Z,0
2017-02-26T04:35:10.446Z,0
2017-02-26T04:36:21.140Z,0
2017-02-26T04:37:31.048Z,0
2017-02-26T04:38:41.362Z,0
2017-02-26T04:39:52.052Z,0
2017-02-26T04:41:02.754Z,0
2017-02-26T04:42:13.049Z,0
2017-02-26T04:43:23.340Z,0
2017-02-26T04:44:34.043Z,0
2017-02-26T04:45:44.747Z,0
2017-02-26T04:46:55.440Z,0
2017-02-26T04:48:06.162Z,0
2017-02-26T04:49:16.873Z,0
2017-02-26T04:50:27.565Z,0
2017-02-26T04:51:37.863Z,0
2017-02-26T04:52:48.165Z,0
2017-02-26T04:53:58.956Z,0
2017-02-26T04:55:09.686Z,0
2017-02-26T04:56:19.988Z,0
2017-02-26T04:57:29.910Z,0
2017-02-26T04:58:40.600Z,0
2017-02-26T04:59:51.297Z,0
2017-02-26T05:01:01.994Z,0
2017-02-26T05:02:12.681Z,0
2017-02-26T05:03:23.379Z,0
2017-02-26T05:04:34.075Z,0
2017-02-26T05:05:44.775Z,0
2017-02-26T05:06:55.461Z,0
2017-02-26T05:08:06.190Z,0
2017-02-26T05:09:16.888Z,0
2017-02-26T05:10:27.588Z,0
2017-02-26T05:11:37.922Z,0
2017-02-26T05:12:48.643Z,0
2017-02-26T05:13:59.337Z,0
2017-02-26T05:15:10.032Z,0
2017-02-26T05:16:20.359Z,0
2017-02-26T05:17:31.062Z,0
2017-02-26T05:18:41.006Z,0
2017-02-26T05:19:51.704Z,0
2017-02-26T05:21:02.397Z,0
2017-02-26T05:22:13.101Z,0
2017-02-26T05:23:23.814Z,0
2017-02-26T05:24:34.125Z,0
2017-02-26T05:25:44.419Z,0
2017-02-26T05:26:55.110Z,0
2017-02-26T05:28:05.833Z,0
2017-02-26T05:29:16.526Z,0
2017-02-26T05:30:27.214Z,0
2017-02-26T05:31:37.923Z,0
2017-02-26T05:32:48.625Z,0
2017-02-26T05:33:59.339Z,0
2017-02-26T05:35:10.042Z,0
2017-02-26T05:36:20.335Z,0
2017-02-26T05:37:30.628Z,0
2017-02-26T05:38:40.932Z,0
2017-02-26T05:39:51.640Z,0
2017-02-26T05:41:02.328Z,0
2017-02-26T05:42:13.031Z,0
2017-02-26T05:43:23.340Z,0
2017-02-26T05:44:33.648Z,0
2017-02-26T05:45:43.950Z,0
2017-02-26T05:46:54.693Z,0
2017-02-26T05:48:05.381Z,0
2017-02-26T05:49:16.069Z,0
2017-02-26T05:50:26.783Z,0
2017-02-26T05:51:37.083Z,0
2017-02-26T05:52:47.781Z,0
2017-02-26T05:53:58.496Z,0
2017-02-26T05:55:09.194Z,0
2017-02-26T05:56:19.496Z,0
2017-02-26T05:57:30.199Z,0
2017-02-26T05:58:40.916Z,0
2017-02-26T05:59:51.621Z,0
2017-02-26T06:01:02.316Z,0
2017-02-26T06:02:13.009Z,0
2017-02-26T06:03:23.709Z,0
2017-02-26T06:04:34.398Z,0
2017-02-26T06:05:45.102Z,0
2017-02-26T06:06:55.806Z,0
2017-02-26T06:08:06.493Z,0
2017-02-26T06:09:17.226Z,0
2017-02-26T06:10:27.531Z,0
2017-02-26T06:11:38.214Z,0
2017-02-26T06:12:48.897Z,0
2017-02-26T06:13:59.595Z,0
2017-02-26T06:15:10.292Z,0
2017-02-26T06:16:20.978Z,0
2017-02-26T06:17:31.300Z,5
2017-02-26T06:18:42.033Z,5
2017-02-26T06:19:52.735Z,5
2017-02-26T06:21:03.436Z,5
2017-02-26T06:22:14.133Z,5
2017-02-26T06:23:24.444Z,5
2017-02-26T06:24:35.150Z,5
2017-02-26T06:25:45.835Z,5
2017-02-26T06:26:56.558Z,5
2017-02-26T06:28:07.245Z,5
2017-02-26T06:29:17.951Z,5
2017-02-26T06:30:28.247Z,5
2017-02-26T06:31:38.937Z,10
2017-02-26T06:32:49.240Z,10
2017-02-26T06:33:59.942Z,10
2017-02-26T06:35:10.639Z,10
2017-02-26T06:36:20.952Z,10
2017-02-26T06:37:31.649Z,15
2017-02-26T06:38:42.349Z,15
2017-02-26T06:39:53.060Z,15
2017-02-26T06:41:03.750Z,15
2017-02-26T06:42:14.447Z,15
2017-02-26T06:43:25.175Z,20
2017-02-26T06:44:35.866Z,20
2017-02-26T06:45:46.568Z,20
2017-02-26T06:46:57.261Z,20
2017-02-26T06:48:07.972Z,25
2017-02-26T06:49:18.718Z,25
2017-02-26T06:50:29.028Z,25
2017-02-26T06:51:39.718Z,25
2017-02-26T06:52:50.426Z,30
2017-02-26T06:54:01.118Z,30
2017-02-26T06:55:11.851Z,30
2017-02-26T06:56:22.570Z,30
2017-02-26T06:57:33.283Z,35
2017-02-26T06:58:43.978Z,35
2017-02-26T06:59:54.327Z,35
2017-02-26T07:01:05.029Z,35
2017-02-26T07:02:15.359Z,40
2017-02-26T07:03:25.654Z,40
2017-02-26T07:04:35.944Z,45
2017-02-26T07:05:46.646Z,45
2017-02-26T07:06:57.342Z,45
2017-02-26T07:08:08.051Z,50
2017-02-26T07:09:18.762Z,50
2017-02-26T07:10:29.121Z,50
2017-02-26T07:11:39.819Z,55
2017-02-26T07:12:49.746Z,55
2017-02-26T07:14:00.440Z,60
2017-02-26T07:15:10.745Z,60
2017-02-26T07:16:21.456Z,65
2017-02-26T07:17:31.759Z,65
2017-02-26T07:18:42.470Z,70
2017-02-26T07:19:53.173Z,75
2017-02-26T07:21:03.870Z,75
2017-02-26T07:22:14.569Z,75
2017-02-26T07:23:25.261Z,80
2017-02-26T07:24:35.554Z,80
2017-02-26T07:25:45.480Z,80
2017-02-26T07:26:56.201Z,80
2017-02-26T07:28:06.896Z,90
2017-02-26T07:29:17.224Z,95
2017-02-26T07:30:27.945Z,100
2017-02-26T07:31:38.648Z,105
2017-02-26T07:32:49.342Z,105
2017-02-26T07:34:00.050Z,110
2017-02-26T07:35:10.769Z,115
2017-02-26T07:36:21.451Z,120
2017-02-26T07:37:32.173Z,120
2017-02-26T07:38:42.474Z,125
2017-02-26T07:39:53.162Z,125
2017-02-26T07:41:03.860Z,130
2017-02-26T07:42:14.153Z,135
2017-02-26T07:43:24.866Z,130
2017-02-26T07:44:34.785Z,130
2017-02-26T07:45:45.094Z,135
2017-02-26T07:46:55.783Z,140
2017-02-26T07:48:06.472Z,140
2017-02-26T07:49:17.160Z,145
2017-02-26T07:50:27.868Z,150
2017-02-26T07:51:38.568Z,155
2017-02-26T07:52:49.295Z,160
2017-02-26T07:53:59.987Z,165
2017-02-26T07:55:10.711Z,170
2017-02-26T07:56:21.405Z,175
2017-02-26T07:57:32.125Z,175
2017-02-26T07:58:42.841Z,175
2017-02-26T07:59:53.143Z,175
2017-02-26T08:01:03.823Z,175
2017-02-26T08:02:14.142Z,170
2017-02-26T08:03:24.050Z,170
2017-02-26T08:04:34.338Z,170
2017-02-26T08:05:45.042Z,170
2017-02-26T08:06:55.730Z,175
2017-02-26T08:08:06.439Z,180
2017-02-26T08:09:16.354Z,180
2017-02-26T08:10:26.647Z,185
2017-02-26T08:11:37.336Z,190
2017-02-26T08:12:47.241Z,190
2017-02-26T08:13:57.945Z,195
2017-02-26T08:15:08.636Z,200
2017-02-26T08:16:19.333Z,205
2017-02-26T08:17:30.038Z,205
2017-02-26T08:18:40.753Z,205
2017-02-26T08:19:50.638Z,205
2017-02-26T08:21:01.326Z,205
2017-02-26T08:22:12.034Z,200
2017-02-26T08:23:22.745Z,200
2017-02-26T08:24:33.055Z,200
2017-02-26T08:25:43.739Z,200
2017-02-26T08:26:54.475Z,200
2017-02-26T08:28:05.160Z,200
2017-02-26T08:29:15.886Z,205
2017-02-26T08:30:26.582Z,205
2017-02-26T08:31:37.298Z,210
2017-02-26T08:32:47.601Z,210
2017-02-26T08:33:57.912Z,215
2017-02-26T08:35:08.236Z,220
2017-02-26T08:36:18.938Z,225
2017-02-26T08:37:29.254Z,230
2017-02-26T08:38:39.939Z,240
2017-02-26T08:39:50.238Z,245
2017-02-26T08:41:00.948Z,255
2017-02-26T08:42:11.632Z,260
2017-02-26T08:43:21.167Z,265
2017-02-26T08:44:31.881Z,270
2017-02-26T08:45:42.647Z,270
2017-02-26T08:46:52.977Z,275
2017-02-26T08:48:03.302Z,280
2017-02-26T08:49:14.012Z,285
2017-02-26T08:50:24.704Z,290
2017-02-26T08:51:35.018Z,295
2017-02-26T08:52:45.713Z,300
2017-02-26T08:53:56.419Z,305
2017-02-26T08:55:06.721Z,310
2017-02-26T08:56:17.028Z,315
2017-02-26T08:57:27.327Z,315
2017-02-26T08:58:38.014Z,315
2017-02-26T08:59:47.947Z,320
2017-02-26T09:00:58.651Z,320
2017-02-26T09:02:09.382Z,320
2017-02-26T09:03:20.102Z,320
2017-02-26T09:04:30.792Z,325
2017-02-26T09:05:41.487Z,325
2017-02-26T09:06:51.811Z,330
2017-02-26T09:08:02.116Z,335
2017-02-26T09:09:12.816Z,335
2017-02-26T09:10:23.515Z,335
2017-02-26T09:11:34.213Z,340
2017-02-26T09:12:44.908Z,340
2017-02-26T09:13:55.227Z,340
2017-02-26T09:15:05.930Z,340
2017-02-26T09:16:16.622Z,340
2017-02-26T09:17:27.331Z,330
2017-02-26T09:18:38.030Z,325
2017-02-26T09:19:48.726Z,325
2017-02-26T09:20:59.036Z,320
2017-02-26T09:22:09.752Z,320
2017-02-26T09:23:20.048Z,320
2017-02-26T09:24:30.753Z,315
2017-02-26T09:25:41.459Z,320
2017-02-26T09:26:52.158Z,330
2017-02-26T09:28:02.877Z,335
2017-02-26T09:29:13.578Z,340
2017-02-26T09:30:24.285Z,345
2017-02-26T09:31:34.980Z,345
2017-02-26T09:32:45.287Z,345
2017-02-26T09:33:55.992Z,350
2017-02-26T09:35:06.686Z,365
2017-02-26T09:36:17.397Z,370
2017-02-26T09:37:27.305Z,390
2017-02-26T09:38:37.998Z,430
2017-02-26T09:39:48.310Z,470
2017-02-26T09:40:58.214Z,515
2017-02-26T09:42:08.938Z,560
2017-02-26T09:43:18.829Z,580
2017-02-26T09:44:29.539Z,610
2017-02-26T09:45:40.225Z,615
2017-02-26T09:46:50.979Z,615
2017-02-26T09:48:01.739Z,625
2017-02-26T09:49:12.528Z,635
2017-02-26T09:50:23.244Z,645
2017-02-26T09:51:33.549Z,700
2017-02-26T09:52:43.859Z,710
2017-02-26T09:53:54.224Z,710
2017-02-26T09:55:04.944Z,710
2017-02-26T09:56:15.650Z,710
2017-02-26T09:57:26.374Z,715
2017-02-26T09:58:37.112Z,730
2017-02-26T09:59:47.845Z,710
2017-02-26T10:00:58.191Z,680
2017-02-26T10:02:08.912Z,630
2017-02-26T10:03:19.640Z,585
2017-02-26T10:04:30.379Z,535
2017-02-26T10:05:41.071Z,525
2017-02-26T10:06:51.766Z,505
2017-02-26T10:08:02.077Z,495
2017-02-26T10:09:12.391Z,485
2017-02-26T10:10:23.105Z,475
2017-02-26T10:11:32.612Z,475
2017-02-26T10:12:42.921Z,480
2017-02-26T10:13:53.632Z,475
2017-02-26T10:15:04.349Z,465
2017-02-26T10:16:15.052Z,450
2017-02-26T10:17:25.775Z,435
2017-02-26T10:18:36.497Z,420
2017-02-26T10:19:46.799Z,400
2017-02-26T10:20:57.111Z,390
2017-02-26T10:22:07.404Z,385
2017-02-26T10:23:18.114Z,385
2017-02-26T10:24:28.821Z,395
2017-02-26T10:25:39.536Z,410
2017-02-26T10:26:49.857Z,435
2017-02-26T10:28:00.573Z,470
2017-02-26T10:29:10.883Z,500
2017-02-26T10:30:21.586Z,515
2017-02-26T10:31:31.902Z,515
2017-02-26T10:32:42.625Z,495
2017-02-26T10:33:52.938Z,480
2017-02-26T10:35:03.663Z,475
2017-02-26T10:36:14.362Z,480
2017-02-26T10:37:25.073Z,480
2017-02-26T10:38:34.994Z,480
2017-02-26T10:39:45.301Z,495
2017-02-26T10:40:55.991Z,505
2017-02-26T10:42:06.291Z,525
2017-02-26T10:43:17.009Z,550
2017-02-26T10:44:27.701Z,570
2017-02-26T10:45:38.408Z,585
2017-02-26T10:46:48.712Z,610
2017-02-26T10:47:59.031Z,625
2017-02-26T10:49:09.725Z,625
2017-02-26T10:50:20.034Z,625
2017-02-26T10:51:30.750Z,625
2017-02-26T10:52:41.077Z,640
2017-02-26T10:53:51.782Z,635
2017-02-26T10:55:02.490Z,615
2017-02-26T10:56:12.813Z,595
2017-02-26T10:57:23.514Z,585
2017-02-26T10:58:34.226Z,580
2017-02-26T10:59:44.946Z,575
2017-02-26T11:00:55.656Z,565
2017-02-26T11:02:06.362Z,560
2017-02-26T11:03:17.074Z,570
2017-02-26T11:04:27.775Z,580
2017-02-26T11:05:38.469Z,580
2017-02-26T11:06:49.159Z,590
2017-02-26T11:07:59.870Z,645
2017-02-26T11:09:10.573Z,675
2017-02-26T11:10:20.877Z,715
2017-02-26T11:11:31.195Z,740
2017-02-26T11:12:41.505Z,735
2017-02-26T11:13:52.227Z,730
2017-02-26T11:15:02.541Z,735
2017-02-26T11:16:13.269Z,740
2017-02-26T11:17:23.992Z,755
2017-02-26T11:18:34.697Z,760
2017-02-26T11:19:44.991Z,775
2017-02-26T11:20:54.926Z,785
2017-02-26T11:22:05.643Z,790
2017-02-26T11:23:15.964Z,775
2017-02-26T11:24:26.700Z,780
2017-02-26T11:25:36.604Z,775
2017-02-26T11:26:46.938Z,775
2017-02-26T11:27:57.661Z,770
2017-02-26T11:29:08.385Z,770
2017-02-26T11:30:19.094Z,760
2017-02-26T11:31:29.815Z,750
2017-02-26T11:32:40.538Z,745
2017-02-26T11:33:51.259Z,745
2017-02-26T11:35:01.964Z,745
2017-02-26T11:36:12.277Z,745
2017-02-26T11:37:22.987Z,735
2017-02-26T11:38:33.696Z,735
2017-02-26T11:39:44.006Z,735
2017-02-26T11:40:54.716Z,765
2017-02-26T11:42:05.040Z,795
2017-02-26T11:43:15.343Z,765
2017-02-26T11:44:25.264Z,755
2017-02-26T11:45:36.004Z,750
2017-02-26T11:46:46.723Z,745
2017-02-26T11:47:57.444Z,740
2017-02-26T11:49:07.769Z,745
2017-02-26T11:50:18.487Z,760
2017-02-26T11:51:29.200Z,765
2017-02-26T11:52:39.910Z,765
2017-02-26T11:53:50.626Z,760
2017-02-26T11:55:00.147Z,770
2017-02-26T11:56:10.863Z,780
2017-02-26T11:57:21.593Z,785
2017-02-26T11:58:32.301Z,790
2017-02-26T11:59:43.025Z,790
2017-02-26T12:00:53.736Z,795
2017-02-26T12:02:04.445Z,800
2017-02-26T12:03:15.182Z,810
2017-02-26T12:04:25.900Z,810
2017-02-26T12:05:36.210Z,815
2017-02-26T12:06:46.931Z,830
2017-02-26T12:07:57.651Z,825
2017-02-26T12:09:08.369Z,825
2017-02-26T12:10:19.098Z,830
2017-02-26T12:11:29.812Z,835
2017-02-26T12:12:40.522Z,845
2017-02-26T12:13:50.433Z,855
2017-02-26T12:15:00.771Z,855
2017-02-26T12:16:11.102Z,860
2017-02-26T12:17:21.816Z,860
2017-02-26T12:18:32.530Z,860
2017-02-26T12:19:42.461Z,865
2017-02-26T12:20:53.209Z,865
2017-02-26T12:22:03.529Z,875
2017-02-26T12:23:13.842Z,875
2017-02-26T12:24:24.585Z,885
2017-02-26T12:25:35.309Z,895
2017-02-26T12:26:46.013Z,900
2017-02-26T12:27:55.932Z,910
2017-02-26T12:29:06.650Z,930
2017-02-26T12:30:16.957Z,945
2017-02-26T12:31:27.291Z,960
2017-02-26T12:32:37.626Z,970
2017-02-26T12:33:48.349Z,995
2017-02-26T12:34:59.084Z,1030
2017-02-26T12:36:09.804Z,1050
2017-02-26T12:37:20.513Z,1070
2017-02-26T12:38:30.839Z,1115
2017-02-26T12:39:41.558Z,1180
2017-02-26T12:40:52.309Z,1245
2017-02-26T12:42:03.037Z,1300
2017-02-26T12:43:13.747Z,1335
2017-02-26T12:44:24.472Z,1435
2017-02-26T12:45:34.815Z,1585
2017-02-26T12:46:45.136Z,1830
2017-02-26T12:47:55.463Z,2485
2017-02-26T12:49:06.183Z,2855
2017-02-26T12:50:16.890Z,2490
2017-02-26T12:51:27.607Z,2055
2017-02-26T12:52:37.941Z,2115
2017-02-26T12:53:48.303Z,1960
2017-02-26T12:54:59.034Z,1905
2017-02-26T12:56:09.760Z,1770
2017-02-26T12:57:20.489Z,1675
2017-02-26T12:58:31.207Z,1725
2017-02-26T12:59:41.929Z,1710
2017-02-26T13:00:52.679Z,1445
2017-02-26T13:02:03.020Z,1445
2017-02-26T13:03:13.740Z,1580
2017-02-26T13:04:24.158Z,1870
2017-02-26T13:05:34.889Z,1930
2017-02-26T13:06:45.219Z,1940
2017-02-26T13:07:55.973Z,1910
2017-02-26T13:09:06.708Z,1890
2017-02-26T13:10:17.419Z,1915
2017-02-26T13:11:27.733Z,1900
2017-02-26T13:12:38.455Z,1930
2017-02-26T13:13:49.198Z,1885
2017-02-26T13:14:59.905Z,1865
2017-02-26T13:16:10.627Z,1745
2017-02-26T13:17:21.373Z,1430
2017-02-26T13:18:32.100Z,1260
2017-02-26T13:19:42.413Z,1235
2017-02-26T13:20:53.143Z,1035
2017-02-26T13:22:03.448Z,920
2017-02-26T13:23:14.171Z,755
2017-02-26T13:24:24.900Z,670
2017-02-26T13:25:35.629Z,625
2017-02-26T13:26:45.936Z,535
2017-02-26T13:27:56.657Z,710
2017-02-26T13:29:07.006Z,675
2017-02-26T13:30:17.719Z,620
2017-02-26T13:31:28.432Z,595
2017-02-26T13:32:38.349Z,585
2017-02-26T13:33:49.063Z,530
2017-02-26T13:34:59.388Z,550
2017-02-26T13:36:09.721Z,605
2017-02-26T13:37:20.431Z,530
2017-02-26T13:38:31.186Z,600
2017-02-26T13:39:41.108Z,890
2017-02-26T13:40:51.885Z,810
2017-02-26T13:42:02.597Z,515
2017-02-26T13:43:13.312Z,495
2017-02-26T13:44:23.638Z,480
2017-02-26T13:45:33.574Z,580
2017-02-26T13:46:43.892Z,840
2017-02-26T13:47:54.207Z,785
2017-02-26T13:49:04.912Z,630
2017-02-26T13:50:15.622Z,565
2017-02-26T13:51:26.329Z,485
2017-02-26T13:52:36.663Z,460
2017-02-26T13:53:47.391Z,675
2017-02-26T13:54:58.103Z,805
2017-02-26T13:56:08.812Z,805
2017-02-26T13:57:19.530Z,795
2017-02-26T13:58:30.250Z,585
2017-02-26T13:59:40.552Z,460
2017-02-26T14:00:51.280Z,355
2017-02-26T14:02:02.017Z,455
2017-02-26T14:03:12.722Z,535
2017-02-26T14:04:23.443Z,555
2017-02-26T14:05:34.182Z,700
2017-02-26T14:06:44.906Z,800
2017-02-26T14:07:55.219Z,755
2017-02-26T14:09:05.928Z,590
2017-02-26T14:10:15.843Z,680
2017-02-26T14:11:26.573Z,465
2017-02-26T14:12:36.881Z,350
2017-02-26T14:13:47.623Z,395
2017-02-26T14:14:58.403Z,475
2017-02-26T14:16:08.718Z,400
2017-02-26T14:17:19.436Z,335
2017-02-26T14:18:30.160Z,455
2017-02-26T14:19:40.470Z,440
2017-02-26T14:20:51.180Z,395
2017-02-26T14:22:01.902Z,405
2017-02-26T14:23:12.218Z,400
2017-02-26T14:24:22.529Z,430
2017-02-26T14:25:33.241Z,525
2017-02-26T14:26:43.165Z,745
2017-02-26T14:27:53.867Z,515
2017-02-26T14:29:04.575Z,295
2017-02-26T14:30:14.912Z,520
2017-02-26T14:31:25.632Z,840
2017-02-26T14:32:35.934Z,1080
2017-02-26T14:33:45.438Z,1080
2017-02-26T14:34:56.158Z,1000
2017-02-26T14:36:06.881Z,525
2017-02-26T14:37:17.605Z,345
2017-02-26T14:38:28.332Z,410
2017-02-26T14:39:39.084Z,565
2017-02-26T14:40:49.000Z,700
2017-02-26T14:41:59.705Z,815
2017-02-26T14:43:10.417Z,690
2017-02-26T14:44:21.148Z,545
2017-02-26T14:45:31.488Z,435
2017-02-26T14:46:41.807Z,450
2017-02-26T14:47:52.507Z,475
2017-02-26T14:49:03.216Z,425
2017-02-26T14:50:13.935Z,345
2017-02-26T14:51:24.668Z,340
2017-02-26T14:52:35.412Z,360
2017-02-26T14:53:46.132Z,455
2017-02-26T14:54:56.839Z,425
2017-02-26T14:56:07.544Z,330
2017-02-26T14:57:18.256Z,325
2017-02-26T14:58:28.559Z,415
2017-02-26T14:59:38.874Z,420
2017-02-26T15:00:48.798Z,365
2017-02-26T15:01:59.505Z,360
2017-02-26T15:03:10.209Z,310
2017-02-26T15:04:20.916Z,300
2017-02-26T15:05:31.611Z,360
2017-02-26T15:06:41.943Z,320
2017-02-26T15:07:52.264Z,305
2017-02-26T15:09:02.594Z,340
2017-02-26T15:10:12.502Z,330
2017-02-26T15:11:23.220Z,400
2017-02-26T15:12:33.541Z,595
2017-02-26T15:13:44.261Z,390
2017-02-26T15:14:54.960Z,435
2017-02-26T15:16:04.887Z,380
2017-02-26T15:17:15.608Z,320
2017-02-26T15:18:25.924Z,265
2017-02-26T15:19:36.623Z,220
2017-02-26T15:20:46.932Z,205
2017-02-26T15:21:57.644Z,240
2017-02-26T15:23:08.365Z,285
2017-02-26T15:24:19.088Z,345
2017-02-26T15:25:29.802Z,425
2017-02-26T15:26:40.533Z,415
2017-02-26T15:27:51.235Z,410
2017-02-26T15:29:01.587Z,435
2017-02-26T15:30:11.926Z,495
2017-02-26T15:31:22.659Z,520
2017-02-26T15:32:32.965Z,510
2017-02-26T15:33:43.708Z,515
2017-02-26T15:34:54.426Z,540
2017-02-26T15:36:05.131Z,535
2017-02-26T15:37:15.839Z,510
2017-02-26T15:38:26.162Z,505
2017-02-26T15:39:36.858Z,485
2017-02-26T15:40:47.186Z,455
2017-02-26T15:41:57.505Z,420
2017-02-26T15:43:07.817Z,375
2017-02-26T15:44:18.117Z,310
2017-02-26T15:45:28.819Z,245
2017-02-26T15:46:39.544Z,210
2017-02-26T15:47:50.278Z,165
2017-02-26T15:49:00.996Z,140
2017-02-26T15:50:11.699Z,120
2017-02-26T15:51:22.000Z,105
2017-02-26T15:52:32.699Z,100
2017-02-26T15:53:43.430Z,95
2017-02-26T15:54:54.135Z,90
2017-02-26T15:56:04.824Z,85
2017-02-26T15:57:15.523Z,80
2017-02-26T15:58:26.231Z,80
2017-02-26T15:59:36.936Z,75
2017-02-26T16:00:47.647Z,75
2017-02-26T16:01:58.353Z,70
2017-02-26T16:03:09.060Z,65
2017-02-26T16:04:19.793Z,65
2017-02-26T16:05:30.507Z,60
2017-02-26T16:06:41.206Z,60
2017-02-26T16:07:51.919Z,55
2017-02-26T16:09:02.622Z,55
2017-02-26T16:10:12.936Z,50
2017-02-26T16:11:23.652Z,50
2017-02-26T16:12:33.979Z,45
2017-02-26T16:13:44.684Z,45
2017-02-26T16:14:55.390Z,40
2017-02-26T16:16:06.093Z,40
2017-02-26T16:17:16.795Z,40
2017-02-26T16:18:27.513Z,35
2017-02-26T16:19:38.216Z,35
2017-02-26T16:20:48.912Z,35
2017-02-26T16:21:59.241Z,30
2017-02-26T16:23:09.541Z,30
2017-02-26T16:24:20.248Z,30
2017-02-26T16:25:30.552Z,25
2017-02-26T16:26:40.849Z,25
2017-02-26T16:27:51.558Z,25
2017-02-26T16:29:02.267Z,20
2017-02-26T16:30:12.586Z,20
2017-02-26T16:31:23.300Z,20
2017-02-26T16:32:34.004Z,20
2017-02-26T16:33:44.740Z,15
2017-02-26T16:34:55.082Z,15
2017-02-26T16:36:04.992Z,15
2017-02-26T16:37:15.720Z,10
2017-02-26T16:38:26.414Z,10
2017-02-26T16:39:36.709Z,10
2017-02-26T16:40:47.413Z,10